This is the latest recevied weather packets stored in our database for station/object DG4CB-13. If no packets are shown the sender has not sent any weather packets the latest 10 day(s).
| Time | Temp. | Humidity | Pressure | Rain* | Wind** | Luminosity | Snow |
|---|---|---|---|---|---|---|---|
| 1788415800 | 12.78° C | 84% | 1018.4 hPa | - | - | - | - |
| 1788415200 | 12.78° C | 84% | 1018.7 hPa | - | - | - | - |
| 1788414600 | 12.22° C | 87% | 1018.9 hPa | - | - | - | - |
| 1788414001 | 12.22° C | 87% | 1019.1 hPa | - | - | - | - |
| 1788403799 | 11.67° C | 83% | 1019.1 hPa | - | - | - | - |
| 1788403199 | 12.22° C | 81% | 1019.3 hPa | - | - | - | - |
| 1788402600 | 12.22° C | 80% | 1019.3 hPa | - | - | - | - |
| 1788401999 | 12.22° C | 80% | 1019.3 hPa | - | - | - | - |
| 1788401399 | 12.22° C | 80% | 1019.3 hPa | - | - | - | - |
| 1788400799 | 12.22° C | 80% | 1019.4 hPa | - | - | - | - |
| 1788400200 | 12.22° C | 79% | 1019.4 hPa | - | - | - | - |
| 1788382200 | 16.67° C | 64% | 1019.7 hPa | - | - | - | - |
| 1788363600 | 22.22° C | 40% | 1019 hPa | - | - | - | - |
| 1788326400 | 12.22° C | 89% | 1019.4 hPa | - | - | - | - |
| 1788325800 | 12.22° C | 89% | 1019.4 hPa | - | - | - | - |
| 1788325200 | 12.22° C | 89% | 1019.4 hPa | - | - | - | - |
| 1788324600 | 12.22° C | 90% | 1019.3 hPa | - | - | - | - |
| 1788324000 | 12.22° C | 90% | 1019.3 hPa | - | - | - | - |
| 1788323400 | 12.22° C | 90% | 1019.3 hPa | - | - | - | - |
| 1788322800 | 12.22° C | 89% | 1019.3 hPa | - | - | - | - |
| 1788308400 | 13.89° C | 82% | 1019.6 hPa | - | - | - | - |
| 1788307800 | 13.89° C | 82% | 1019.9 hPa | - | - | - | - |
| 1788307200 | 13.89° C | 82% | 1019.9 hPa | - | - | - | - |
| 1788306600 | 13.89° C | 82% | 1019.9 hPa | - | - | - | - |
| 1788306000 | 13.89° C | 82% | 1020 hPa | - | - | - | - |
* Rain since midnight (hover to see other rain measurements)
** Current wind speed in m/s (hover to see current wind gust speed)